sensor_id;sensor_type;location;lat;lon;timestamp;pressure;altitude;pressure_sealevel;temperature;humidity
2397;BME280;1209;48.410;9.054;2024-02-26T00:01:51;94313.16;;;9.27;56.95
2397;BME280;1209;48.410;9.054;2024-02-26T00:04:17;94307.22;;;9.20;57.15
2397;BME280;1209;48.410;9.054;2024-02-26T00:06:42;94287.22;;;9.13;56.82
2397;BME280;1209;48.410;9.054;2024-02-26T00:09:08;94301.19;;;9.01;58.35
2397;BME280;1209;48.410;9.054;2024-02-26T00:11:37;94295.56;;;8.97;57.27
2397;BME280;1209;48.410;9.054;2024-02-26T00:14:03;94298.06;;;8.86;59.29
2397;BME280;1209;48.410;9.054;2024-02-26T00:16:28;94295.41;;;8.67;62.92
2397;BME280;1209;48.410;9.054;2024-02-26T00:18:53;94303.38;;;8.72;64.31
2397;BME280;1209;48.410;9.054;2024-02-26T00:21:19;94294.56;;;8.73;64.86
2397;BME280;1209;48.410;9.054;2024-02-26T00:23:44;94296.31;;;8.79;65.35
2397;BME280;1209;48.410;9.054;2024-02-26T00:26:09;94302.69;;;8.59;64.82
2397;BME280;1209;48.410;9.054;2024-02-26T00:28:36;94304.59;;;8.70;63.68
2397;BME280;1209;48.410;9.054;2024-02-26T00:31:01;94307.56;;;8.73;62.28
2397;BME280;1209;48.410;9.054;2024-02-26T00:33:27;94305.28;;;8.83;61.62
2397;BME280;1209;48.410;9.054;2024-02-26T00:35:52;94305.72;;;8.80;61.86
2397;BME280;1209;48.410;9.054;2024-02-26T00:38:18;94309.84;;;8.63;62.78
2397;BME280;1209;48.410;9.054;2024-02-26T00:40:43;94300.31;;;8.50;63.00
2397;BME280;1209;48.410;9.054;2024-02-26T00:43:08;94308.69;;;8.59;63.75
2397;BME280;1209;48.410;9.054;2024-02-26T00:45:34;94301.63;;;8.66;61.99
2397;BME280;1209;48.410;9.054;2024-02-26T00:47:59;94305.72;;;8.56;63.22
2397;BME280;1209;48.410;9.054;2024-02-26T00:50:29;94317.88;;;8.62;62.08
2397;BME280;1209;48.410;9.054;2024-02-26T00:52:55;94325.16;;;8.78;60.43
2397;BME280;1209;48.410;9.054;2024-02-26T00:55:20;94324.34;;;8.77;59.52
2397;BME280;1209;48.410;9.054;2024-02-26T00:57:45;94326.13;;;8.83;58.93
2397;BME280;1209;48.410;9.054;2024-02-26T01:00:11;94317.47;;;8.90;59.41
2397;BME280;1209;48.410;9.054;2024-02-26T01:02:37;94312.53;;;8.81;58.64
2397;BME280;1209;48.410;9.054;2024-02-26T01:05:04;94309.75;;;8.76;59.36
2397;BME280;1209;48.410;9.054;2024-02-26T01:07:31;94317.25;;;8.91;57.53
2397;BME280;1209;48.410;9.054;2024-02-26T01:10:00;94325.44;;;8.95;57.50
2397;BME280;1209;48.410;9.054;2024-02-26T01:12:26;94329.16;;;9.05;62.63
2397;BME280;1209;48.410;9.054;2024-02-26T01:14:51;94302.16;;;9.43;69.79
2397;BME280;1209;48.410;9.054;2024-02-26T01:17:16;94314.13;;;9.69;67.77
2397;BME280;1209;48.410;9.054;2024-02-26T01:19:42;94326.66;;;9.60;66.66
2397;BME280;1209;48.410;9.054;2024-02-26T01:22:08;94317.97;;;9.48;70.71
2397;BME280;1209;48.410;9.054;2024-02-26T01:24:33;94321.88;;;9.14;73.22
2397;BME280;1209;48.410;9.054;2024-02-26T01:26:58;94316.97;;;8.74;78.28
2397;BME280;1209;48.410;9.054;2024-02-26T01:29:23;94329.75;;;8.44;75.57
2397;BME280;1209;48.410;9.054;2024-02-26T01:31:49;94323.88;;;8.17;72.98
2397;BME280;1209;48.410;9.054;2024-02-26T01:34:14;94316.84;;;8.25;74.44
2397;BME280;1209;48.410;9.054;2024-02-26T01:36:39;94331.66;;;8.24;73.62
2397;BME280;1209;48.410;9.054;2024-02-26T01:39:05;94332.44;;;8.25;71.66
2397;BME280;1209;48.410;9.054;2024-02-26T01:41:30;94343.41;;;8.40;72.49
2397;BME280;1209;48.410;9.054;2024-02-26T01:43:55;94338.41;;;8.32;73.23
2397;BME280;1209;48.410;9.054;2024-02-26T01:46:21;94348.34;;;8.55;75.38
2397;BME280;1209;48.410;9.054;2024-02-26T01:48:47;94352.66;;;8.23;79.98
2397;BME280;1209;48.410;9.054;2024-02-26T01:51:15;94342.84;;;8.25;80.38
2397;BME280;1209;48.410;9.054;2024-02-26T01:53:41;94336.13;;;8.10;78.37
2397;BME280;1209;48.410;9.054;2024-02-26T01:56:07;94344.53;;;8.06;80.46
2397;BME280;1209;48.410;9.054;2024-02-26T01:58:34;94356.94;;;7.97;78.94
2397;BME280;1209;48.410;9.054;2024-02-26T02:01:00;94354.56;;;7.96;75.47
2397;BME280;1209;48.410;9.054;2024-02-26T02:03:26;94347.41;;;7.84;79.01
2397;BME280;1209;48.410;9.054;2024-02-26T02:05:52;94361.41;;;7.83;79.69
2397;BME280;1209;48.410;9.054;2024-02-26T02:08:17;94352.22;;;7.81;81.19
2397;BME280;1209;48.410;9.054;2024-02-26T02:10:44;94360.22;;;7.73;83.36
2397;BME280;1209;48.410;9.054;2024-02-26T02:13:09;94367.38;;;7.84;84.43
2397;BME280;1209;48.410;9.054;2024-02-26T02:15:34;94357.94;;;7.96;81.45
2397;BME280;1209;48.410;9.054;2024-02-26T02:18:00;94350.22;;;7.76;83.03
2397;BME280;1209;48.410;9.054;2024-02-26T02:20:32;94330.06;;;7.72;79.92
2397;BME280;1209;48.410;9.054;2024-02-26T02:22:58;94342.22;;;7.78;79.33
2397;BME280;1209;48.410;9.054;2024-02-26T02:25:24;94352.94;;;8.01;83.41
2397;BME280;1209;48.410;9.054;2024-02-26T02:27:49;94369.34;;;7.95;82.90
2397;BME280;1209;48.410;9.054;2024-02-26T02:30:15;94358.94;;;7.95;81.75
2397;BME280;1209;48.410;9.054;2024-02-26T02:32:41;94368.31;;;8.09;75.32
2397;BME280;1209;48.410;9.054;2024-02-26T02:35:07;94363.09;;;8.16;76.01
2397;BME280;1209;48.410;9.054;2024-02-26T02:37:33;94365.06;;;8.20;74.60
2397;BME280;1209;48.410;9.054;2024-02-26T02:39:59;94356.31;;;8.08;78.37
2397;BME280;1209;48.410;9.054;2024-02-26T02:42:25;94359.94;;;8.01;77.56
2397;BME280;1209;48.410;9.054;2024-02-26T02:44:50;94357.75;;;8.04;77.64
2397;BME280;1209;48.410;9.054;2024-02-26T02:47:16;94331.19;;;7.89;78.55
2397;BME280;1209;48.410;9.054;2024-02-26T02:49:41;94337.53;;;8.06;78.81
2397;BME280;1209;48.410;9.054;2024-02-26T02:52:06;94335.38;;;7.90;81.54
2397;BME280;1209;48.410;9.054;2024-02-26T02:54:32;94330.84;;;7.79;82.46
2397;BME280;1209;48.410;9.054;2024-02-26T02:56:57;94326.28;;;7.68;81.59
2397;BME280;1209;48.410;9.054;2024-02-26T02:59:23;94329.25;;;7.78;83.21
2397;BME280;1209;48.410;9.054;2024-02-26T03:01:48;94318.97;;;7.96;82.23
2397;BME280;1209;48.410;9.054;2024-02-26T03:04:13;94321.47;;;7.71;85.06
2397;BME280;1209;48.410;9.054;2024-02-26T03:06:39;94320.00;;;7.88;85.06
2397;BME280;1209;48.410;9.054;2024-02-26T03:09:04;94315.25;;;7.79;83.73
2397;BME280;1209;48.410;9.054;2024-02-26T03:11:29;94304.91;;;7.66;86.25
2397;BME280;1209;48.410;9.054;2024-02-26T03:13:54;94321.50;;;7.58;83.94
2397;BME280;1209;48.410;9.054;2024-02-26T03:16:20;94302.53;;;7.57;83.25
2397;BME280;1209;48.410;9.054;2024-02-26T03:18:45;94303.53;;;7.50;85.16
2397;BME280;1209;48.410;9.054;2024-02-26T03:21:11;94313.91;;;7.50;84.17
2397;BME280;1209;48.410;9.054;2024-02-26T03:23:36;94315.72;;;7.49;83.00
2397;BME280;1209;48.410;9.054;2024-02-26T03:26:03;94323.31;;;7.57;83.63
2397;BME280;1209;48.410;9.054;2024-02-26T03:28:29;94331.84;;;7.78;84.22
2397;BME280;1209;48.410;9.054;2024-02-26T03:30:55;94333.56;;;7.97;88.94
2397;BME280;1209;48.410;9.054;2024-02-26T03:33:21;94327.59;;;7.90;83.53
2397;BME280;1209;48.410;9.054;2024-02-26T03:35:46;94319.06;;;7.76;84.21
2397;BME280;1209;48.410;9.054;2024-02-26T03:38:11;94306.69;;;7.72;85.21
2397;BME280;1209;48.410;9.054;2024-02-26T03:40:37;94313.72;;;7.58;86.46
2397;BME280;1209;48.410;9.054;2024-02-26T03:43:02;94316.13;;;7.46;85.89
2397;BME280;1209;48.410;9.054;2024-02-26T03:45:29;94305.75;;;7.46;87.44
2397;BME280;1209;48.410;9.054;2024-02-26T03:47:55;94299.13;;;7.50;88.22
2397;BME280;1209;48.410;9.054;2024-02-26T03:50:20;94297.94;;;7.46;88.55
2397;BME280;1209;48.410;9.054;2024-02-26T03:52:45;94315.31;;;7.46;88.48
2397;BME280;1209;48.410;9.054;2024-02-26T03:55:10;94315.31;;;7.52;89.67
2397;BME280;1209;48.410;9.054;2024-02-26T03:57:36;94336.28;;;7.57;90.78
2397;BME280;1209;48.410;9.054;2024-02-26T04:00:02;94334.03;;;7.74;86.07
2397;BME280;1209;48.410;9.054;2024-02-26T04:02:28;94343.88;;;7.66;91.63
2397;BME280;1209;48.410;9.054;2024-02-26T04:04:53;94334.69;;;7.63;94.46
2397;BME280;1209;48.410;9.054;2024-02-26T04:07:18;94332.13;;;8.01;98.47
2397;BME280;1209;48.410;9.054;2024-02-26T04:09:44;94319.56;;;8.43;94.78
2397;BME280;1209;48.410;9.054;2024-02-26T04:12:09;94330.25;;;8.66;95.86
2397;BME280;1209;48.410;9.054;2024-02-26T04:14:35;94330.78;;;8.75;95.95
2397;BME280;1209;48.410;9.054;2024-02-26T04:17:01;94329.72;;;8.58;95.24
2397;BME280;1209;48.410;9.054;2024-02-26T04:19:26;94323.81;;;8.37;93.75
2397;BME280;1209;48.410;9.054;2024-02-26T04:21:52;94312.81;;;8.29;95.86
2397;BME280;1209;48.410;9.054;2024-02-26T04:24:17;94313.91;;;8.14;100.00
2397;BME280;1209;48.410;9.054;2024-02-26T04:26:43;94289.34;;;8.04;100.00
2397;BME280;1209;48.410;9.054;2024-02-26T04:29:08;94285.75;;;8.05;100.00
2397;BME280;1209;48.410;9.054;2024-02-26T04:31:33;94279.59;;;7.93;100.00
2397;BME280;1209;48.410;9.054;2024-02-26T04:33:59;94284.97;;;7.98;100.00
2397;BME280;1209;48.410;9.054;2024-02-26T04:36:24;94292.97;;;7.96;100.00
2397;BME280;1209;48.410;9.054;2024-02-26T04:38:51;94296.59;;;7.95;100.00
2397;BME280;1209;48.410;9.054;2024-02-26T04:41:16;94297.34;;;8.02;100.00
2397;BME280;1209;48.410;9.054;2024-02-26T04:43:42;94299.31;;;8.13;96.77
2397;BME280;1209;48.410;9.054;2024-02-26T04:46:10;94299.56;;;8.05;94.68
2397;BME280;1209;48.410;9.054;2024-02-26T04:48:36;94312.53;;;8.12;93.00
2397;BME280;1209;48.410;9.054;2024-02-26T04:51:02;94316.97;;;8.05;90.37
2397;BME280;1209;48.410;9.054;2024-02-26T04:53:28;94313.56;;;7.98;90.34
2397;BME280;1209;48.410;9.054;2024-02-26T04:55:53;94329.75;;;8.00;91.06
2397;BME280;1209;48.410;9.054;2024-02-26T04:58:19;94319.19;;;7.95;93.60
2397;BME280;1209;48.410;9.054;2024-02-26T05:00:44;94333.59;;;7.90;92.41
2397;BME280;1209;48.410;9.054;2024-02-26T05:03:09;94347.59;;;7.83;93.35
2397;BME280;1209;48.410;9.054;2024-02-26T05:05:38;94358.94;;;8.02;93.87
2397;BME280;1209;48.410;9.054;2024-02-26T05:08:04;94360.19;;;7.86;93.76
2397;BME280;1209;48.410;9.054;2024-02-26T05:10:30;94359.72;;;8.09;100.00
2397;BME280;1209;48.410;9.054;2024-02-26T05:12:55;94365.34;;;7.99;100.00
2397;BME280;1209;48.410;9.054;2024-02-26T05:15:20;94352.28;;;7.61;100.00
2397;BME280;1209;48.410;9.054;2024-02-26T05:17:46;94361.63;;;7.69;100.00
2397;BME280;1209;48.410;9.054;2024-02-26T05:20:11;94356.44;;;7.75;100.00
2397;BME280;1209;48.410;9.054;2024-02-26T05:22:37;94356.06;;;7.65;100.00
2397;BME280;1209;48.410;9.054;2024-02-26T05:25:03;94353.84;;;7.55;100.00
2397;BME280;1209;48.410;9.054;2024-02-26T05:27:28;94355.44;;;7.56;100.00
2397;BME280;1209;48.410;9.054;2024-02-26T05:29:54;94358.28;;;7.35;100.00
2397;BME280;1209;48.410;9.054;2024-02-26T05:32:19;94348.09;;;7.34;100.00
2397;BME280;1209;48.410;9.054;2024-02-26T05:34:45;94341.16;;;7.14;100.00
2397;BME280;1209;48.410;9.054;2024-02-26T05:37:10;94340.53;;;7.06;100.00
2397;BME280;1209;48.410;9.054;2024-02-26T05:39:36;94345.13;;;7.04;100.00
2397;BME280;1209;48.410;9.054;2024-02-26T05:42:02;94346.34;;;7.14;100.00
2397;BME280;1209;48.410;9.054;2024-02-26T05:44:28;94353.09;;;7.35;100.00
2397;BME280;1209;48.410;9.054;2024-02-26T05:46:53;94364.88;;;7.44;100.00
2397;BME280;1209;48.410;9.054;2024-02-26T05:49:18;94367.47;;;7.44;100.00
2397;BME280;1209;48.410;9.054;2024-02-26T05:51:44;94363.09;;;7.25;100.00
2397;BME280;1209;48.410;9.054;2024-02-26T05:54:09;94366.50;;;7.32;100.00
2397;BME280;1209;48.410;9.054;2024-02-26T05:56:35;94373.50;;;7.12;100.00
2397;BME280;1209;48.410;9.054;2024-02-26T05:59:00;94370.91;;;7.12;100.00
2397;BME280;1209;48.410;9.054;2024-02-26T06:01:25;94377.28;;;7.16;100.00
2397;BME280;1209;48.410;9.054;2024-02-26T06:03:51;94385.28;;;7.21;100.00
2397;BME280;1209;48.410;9.054;2024-02-26T06:06:16;94393.22;;;7.00;100.00
2397;BME280;1209;48.410;9.054;2024-02-26T06:08:42;94390.81;;;6.85;100.00
2397;BME280;1209;48.410;9.054;2024-02-26T06:11:08;94403.81;;;6.98;100.00
2397;BME280;1209;48.410;9.054;2024-02-26T06:13:34;94406.97;;;6.67;100.00
2397;BME280;1209;48.410;9.054;2024-02-26T06:15:59;94405.41;;;6.86;100.00
2397;BME280;1209;48.410;9.054;2024-02-26T06:18:25;94421.56;;;6.88;100.00
2397;BME280;1209;48.410;9.054;2024-02-26T06:20:50;94427.94;;;6.85;100.00
2397;BME280;1209;48.410;9.054;2024-02-26T06:23:15;94429.16;;;6.96;100.00
2397;BME280;1209;48.410;9.054;2024-02-26T06:25:41;94433.34;;;7.04;100.00
2397;BME280;1209;48.410;9.054;2024-02-26T06:28:07;94427.34;;;6.97;100.00
2397;BME280;1209;48.410;9.054;2024-02-26T06:30:32;94428.56;;;7.01;100.00
2397;BME280;1209;48.410;9.054;2024-02-26T06:32:58;94432.38;;;7.11;100.00
2397;BME280;1209;48.410;9.054;2024-02-26T06:35:23;94436.94;;;6.96;100.00
2397;BME280;1209;48.410;9.054;2024-02-26T06:37:48;94440.13;;;7.05;100.00
2397;BME280;1209;48.410;9.054;2024-02-26T06:40:17;94443.38;;;7.20;100.00
2397;BME280;1209;48.410;9.054;2024-02-26T06:42:42;94444.97;;;7.34;100.00
2397;BME280;1209;48.410;9.054;2024-02-26T06:45:09;94442.97;;;7.30;100.00
2397;BME280;1209;48.410;9.054;2024-02-26T06:47:34;94444.97;;;7.34;100.00
2397;BME280;1209;48.410;9.054;2024-02-26T06:49:59;94454.34;;;7.48;100.00
2397;BME280;1209;48.410;9.054;2024-02-26T06:52:25;94443.97;;;7.22;100.00
2397;BME280;1209;48.410;9.054;2024-02-26T06:54:51;94443.78;;;7.17;100.00
2397;BME280;1209;48.410;9.054;2024-02-26T06:57:20;94446.72;;;7.07;100.00
2397;BME280;1209;48.410;9.054;2024-02-26T06:59:46;94451.91;;;7.07;100.00
2397;BME280;1209;48.410;9.054;2024-02-26T07:02:15;94449.34;;;7.14;100.00
2397;BME280;1209;48.410;9.054;2024-02-26T07:04:41;94453.56;;;7.21;100.00
2397;BME280;1209;48.410;9.054;2024-02-26T07:07:07;94448.13;;;7.03;100.00
2397;BME280;1209;48.410;9.054;2024-02-26T07:09:33;94455.13;;;7.09;100.00
2397;BME280;1209;48.410;9.054;2024-02-26T07:11:58;94462.16;;;7.35;100.00
2397;BME280;1209;48.410;9.054;2024-02-26T07:14:23;94468.94;;;7.49;100.00
2397;BME280;1209;48.410;9.054;2024-02-26T07:16:50;94464.16;;;7.33;100.00
2397;BME280;1209;48.410;9.054;2024-02-26T07:19:16;94488.94;;;7.69;100.00
2397;BME280;1209;48.410;9.054;2024-02-26T07:21:42;94483.72;;;7.49;100.00
2397;BME280;1209;48.410;9.054;2024-02-26T07:24:07;94466.94;;;7.38;100.00
2397;BME280;1209;48.410;9.054;2024-02-26T07:26:33;94475.94;;;7.49;100.00
2397;BME280;1209;48.410;9.054;2024-02-26T07:28:58;94483.13;;;7.27;100.00
2397;BME280;1209;48.410;9.054;2024-02-26T07:31:25;94476.13;;;7.41;100.00
2397;BME280;1209;48.410;9.054;2024-02-26T07:33:50;94476.56;;;7.57;100.00
2397;BME280;1209;48.410;9.054;2024-02-26T07:36:16;94470.94;;;7.54;100.00
2397;BME280;1209;48.410;9.054;2024-02-26T07:38:41;94471.72;;;7.41;100.00
2397;BME280;1209;48.410;9.054;2024-02-26T07:41:07;94471.75;;;7.68;100.00
2397;BME280;1209;48.410;9.054;2024-02-26T07:43:32;94472.53;;;7.81;100.00
2397;BME280;1209;48.410;9.054;2024-02-26T07:45:57;94479.94;;;7.65;100.00
2397;BME280;1209;48.410;9.054;2024-02-26T07:48:23;94485.31;;;7.56;100.00
2397;BME280;1209;48.410;9.054;2024-02-26T07:50:48;94483.72;;;7.49;100.00
2397;BME280;1209;48.410;9.054;2024-02-26T07:53:13;94480.56;;;7.60;100.00
2397;BME280;1209;48.410;9.054;2024-02-26T07:55:39;94477.13;;;7.46;100.00
2397;BME280;1209;48.410;9.054;2024-02-26T07:58:04;94471.72;;;7.48;100.00
2397;BME280;1209;48.410;9.054;2024-02-26T08:00:29;94470.94;;;7.54;100.00
2397;BME280;1209;48.410;9.054;2024-02-26T08:02:55;94465.34;;;7.64;100.00
2397;BME280;1209;48.410;9.054;2024-02-26T08:05:20;94461.16;;;7.76;100.00
2397;BME280;1209;48.410;9.054;2024-02-26T08:07:45;94458.94;;;7.79;100.00
2397;BME280;1209;48.410;9.054;2024-02-26T08:10:11;94460.53;;;7.80;100.00
2397;BME280;1209;48.410;9.054;2024-02-26T08:12:36;94448.34;;;7.48;100.00
2397;BME280;1209;48.410;9.054;2024-02-26T08:15:02;94448.75;;;7.51;100.00
2397;BME280;1209;48.410;9.054;2024-02-26T08:17:27;94445.19;;;7.59;100.00
2397;BME280;1209;48.410;9.054;2024-02-26T08:19:53;94450.34;;;7.79;100.00
2397;BME280;1209;48.410;9.054;2024-02-26T08:22:18;94433.72;;;7.93;100.00
2397;BME280;1209;48.410;9.054;2024-02-26T08:24:44;94443.31;;;7.99;100.00
2397;BME280;1209;48.410;9.054;2024-02-26T08:27:09;94441.53;;;8.06;100.00
2397;BME280;1209;48.410;9.054;2024-02-26T08:29:35;94440.09;;;8.17;100.00
2397;BME280;1209;48.410;9.054;2024-02-26T08:32:00;94433.66;;;8.26;100.00
2397;BME280;1209;48.410;9.054;2024-02-26T08:34:26;94434.25;;;8.35;100.00
2397;BME280;1209;48.410;9.054;2024-02-26T08:36:51;94426.22;;;8.43;100.00
2397;BME280;1209;48.410;9.054;2024-02-26T08:39:17;94435.41;;;8.52;100.00
2397;BME280;1209;48.410;9.054;2024-02-26T08:41:43;94425.97;;;8.58;100.00
2397;BME280;1209;48.410;9.054;2024-02-26T08:44:09;94423.16;;;8.59;100.00
2397;BME280;1209;48.410;9.054;2024-02-26T08:46:34;94424.53;;;8.62;100.00
2397;BME280;1209;48.410;9.054;2024-02-26T08:48:59;94421.13;;;8.61;100.00
2397;BME280;1209;48.410;9.054;2024-02-26T08:51:25;94429.28;;;8.71;100.00
2397;BME280;1209;48.410;9.054;2024-02-26T08:53:50;94433.19;;;8.87;100.00
2397;BME280;1209;48.410;9.054;2024-02-26T08:56:16;94435.72;;;8.69;100.00
2397;BME280;1209;48.410;9.054;2024-02-26T08:58:42;94441.81;;;8.88;100.00
2397;BME280;1209;48.410;9.054;2024-02-26T09:01:08;94440.16;;;8.62;100.00
2397;BME280;1209;48.410;9.054;2024-02-26T09:03:33;94442.31;;;8.71;100.00
2397;BME280;1209;48.410;9.054;2024-02-26T09:05:58;94443.09;;;8.72;100.00
2397;BME280;1209;48.410;9.054;2024-02-26T09:08:24;94442.06;;;8.79;100.00
2397;BME280;1209;48.410;9.054;2024-02-26T09:10:49;94445.91;;;8.70;100.00
2397;BME280;1209;48.410;9.054;2024-02-26T09:13:15;94440.38;;;8.60;100.00
2397;BME280;1209;48.410;9.054;2024-02-26T09:15:40;94442.94;;;8.67;100.00
2397;BME280;1209;48.410;9.054;2024-02-26T09:18:05;94442.22;;;8.84;100.00
2397;BME280;1209;48.410;9.054;2024-02-26T09:20:31;94452.28;;;8.74;100.00
2397;BME280;1209;48.410;9.054;2024-02-26T09:22:56;94451.13;;;8.70;100.00
2397;BME280;1209;48.410;9.054;2024-02-26T09:25:21;94455.78;;;8.93;100.00
2397;BME280;1209;48.410;9.054;2024-02-26T09:27:47;94458.13;;;9.08;100.00
2397;BME280;1209;48.410;9.054;2024-02-26T09:30:13;94466.03;;;8.88;100.00
2397;BME280;1209;48.410;9.054;2024-02-26T09:32:39;94465.91;;;9.14;100.00
2397;BME280;1209;48.410;9.054;2024-02-26T09:35:07;94475.25;;;9.22;100.00
2397;BME280;1209;48.410;9.054;2024-02-26T09:37:33;94483.00;;;9.04;100.00
2397;BME280;1209;48.410;9.054;2024-02-26T09:39:59;94480.81;;;9.32;100.00
2397;BME280;1209;48.410;9.054;2024-02-26T09:42:27;94490.34;;;9.70;100.00
2397;BME280;1209;48.410;9.054;2024-02-26T09:44:55;94487.53;;;9.71;100.00
2397;BME280;1209;48.410;9.054;2024-02-26T09:47:28;94482.56;;;9.38;100.00
2397;BME280;1209;48.410;9.054;2024-02-26T09:49:55;94483.38;;;9.64;100.00
2397;BME280;1209;48.410;9.054;2024-02-26T09:52:21;94477.16;;;9.65;100.00
2397;BME280;1209;48.410;9.054;2024-02-26T09:54:47;94489.38;;;9.89;100.00
2397;BME280;1209;48.410;9.054;2024-02-26T09:57:13;94499.63;;;9.66;100.00
2397;BME280;1209;48.410;9.054;2024-02-26T09:59:42;94493.75;;;9.70;100.00
2397;BME280;1209;48.410;9.054;2024-02-26T10:02:14;94505.88;;;9.58;100.00
2397;BME280;1209;48.410;9.054;2024-02-26T10:04:40;94500.94;;;9.75;100.00
2397;BME280;1209;48.410;9.054;2024-02-26T10:07:13;94498.13;;;9.76;100.00
2397;BME280;1209;48.410;9.054;2024-02-26T10:09:39;94501.38;;;9.97;100.00
2397;BME280;1209;48.410;9.054;2024-02-26T10:12:06;94501.25;;;10.10;100.00
2397;BME280;1209;48.410;9.054;2024-02-26T10:14:32;94505.09;;;10.07;100.00
2397;BME280;1209;48.410;9.054;2024-02-26T10:16:58;94493.06;;;10.06;100.00
2397;BME280;1209;48.410;9.054;2024-02-26T10:19:27;94482.34;;;10.15;100.00
2397;BME280;1209;48.410;9.054;2024-02-26T10:21:56;94483.94;;;9.91;100.00
2397;BME280;1209;48.410;9.054;2024-02-26T10:24:23;94493.97;;;9.69;100.00
2397;BME280;1209;48.410;9.054;2024-02-26T10:26:48;94491.69;;;9.79;100.00
2397;BME280;1209;48.410;9.054;2024-02-26T10:29:14;94501.63;;;9.89;100.00
2397;BME280;1209;48.410;9.054;2024-02-26T10:31:42;94505.00;;;9.96;100.00
2397;BME280;1209;48.410;9.054;2024-02-26T10:34:07;94505.66;;;9.85;100.00
2397;BME280;1209;48.410;9.054;2024-02-26T10:36:36;94502.47;;;9.83;100.00
2397;BME280;1209;48.410;9.054;2024-02-26T10:39:03;94506.63;;;9.90;100.00
2397;BME280;1209;48.410;9.054;2024-02-26T10:41:29;94507.13;;;10.05;100.00
2397;BME280;1209;48.410;9.054;2024-02-26T10:43:55;94506.47;;;10.10;100.00
2397;BME280;1209;48.410;9.054;2024-02-26T10:46:20;94513.66;;;10.15;100.00
2397;BME280;1209;48.410;9.054;2024-02-26T10:48:52;94510.44;;;10.37;100.00
2397;BME280;1209;48.410;9.054;2024-02-26T10:51:26;94511.41;;;10.43;100.00
2397;BME280;1209;48.410;9.054;2024-02-26T10:53:55;94510.59;;;10.43;100.00
2397;BME280;1209;48.410;9.054;2024-02-26T10:56:24;94508.34;;;10.46;100.00
2397;BME280;1209;48.410;9.054;2024-02-26T10:58:51;94510.44;;;10.74;100.00
2397;BME280;1209;48.410;9.054;2024-02-26T11:01:18;94517.19;;;10.45;100.00
2397;BME280;1209;48.410;9.054;2024-02-26T11:03:44;94506.81;;;10.38;100.00
2397;BME280;1209;48.410;9.054;2024-02-26T11:06:12;94506.19;;;10.43;100.00
2397;BME280;1209;48.410;9.054;2024-02-26T11:08:38;94506.97;;;10.44;100.00
2397;BME280;1209;48.410;9.054;2024-02-26T11:11:04;94510.25;;;10.57;100.00
2397;BME280;1209;48.410;9.054;2024-02-26T11:13:30;94513.72;;;10.69;100.00
2397;BME280;1209;48.410;9.054;2024-02-26T11:15:56;94524.78;;;10.83;100.00
2397;BME280;1209;48.410;9.054;2024-02-26T11:18:23;94537.41;;;11.04;100.00
2397;BME280;1209;48.410;9.054;2024-02-26T11:20:49;94538.88;;;11.30;100.00
2397;BME280;1209;48.410;9.054;2024-02-26T11:23:14;94539.28;;;11.16;100.00
2397;BME280;1209;48.410;9.054;2024-02-26T11:25:40;94551.25;;;11.23;100.00
2397;BME280;1209;48.410;9.054;2024-02-26T11:28:09;94539.06;;;11.17;100.00
2397;BME280;1209;48.410;9.054;2024-02-26T11:30:39;94533.44;;;11.32;99.14
2397;BME280;1209;48.410;9.054;2024-02-26T11:33:08;94536.66;;;11.16;100.00
2397;BME280;1209;48.410;9.054;2024-02-26T11:35:36;94541.59;;;11.24;99.47
2397;BME280;1209;48.410;9.054;2024-02-26T11:38:01;94541.34;;;11.44;98.84
2397;BME280;1209;48.410;9.054;2024-02-26T11:40:27;94540.91;;;11.58;96.54
2397;BME280;1209;48.410;9.054;2024-02-26T11:42:53;94543.69;;;11.75;95.86
2397;BME280;1209;48.410;9.054;2024-02-26T11:45:47;94544.66;;;11.51;95.17
2397;BME280;1209;48.410;9.054;2024-02-26T11:48:14;94546.81;;;11.54;97.68
2397;BME280;1209;48.410;9.054;2024-02-26T11:53:23;94557.78;;;11.74;93.24
2397;BME280;1209;48.410;9.054;2024-02-26T11:58:44;94562.09;;;12.10;90.52
2397;BME280;1209;48.410;9.054;2024-02-26T12:01:38;94554.81;;;12.24;90.40
2397;BME280;1209;48.410;9.054;2024-02-26T12:04:07;94558.34;;;12.29;90.63
2397;BME280;1209;48.410;9.054;2024-02-26T12:06:51;94563.81;;;12.05;93.87
2397;BME280;1209;48.410;9.054;2024-02-26T12:09:33;94548.41;;;11.85;93.52
2397;BME280;1209;48.410;9.054;2024-02-26T12:12:01;94552.47;;;11.81;96.14
2397;BME280;1209;48.410;9.054;2024-02-26T12:14:27;94557.06;;;11.85;95.85
2397;BME280;1209;48.410;9.054;2024-02-26T12:16:52;94551.84;;;11.85;94.89
2397;BME280;1209;48.410;9.054;2024-02-26T12:19:19;94543.13;;;11.73;92.74
2397;BME280;1209;48.410;9.054;2024-02-26T12:21:44;94553.66;;;11.96;92.95
2397;BME280;1209;48.410;9.054;2024-02-26T12:24:18;94545.59;;;12.10;95.19
2397;BME280;1209;48.410;9.054;2024-02-26T12:26:43;94544.34;;;12.01;92.29
2397;BME280;1209;48.410;9.054;2024-02-26T12:29:09;94552.09;;;12.07;93.70
2397;BME280;1209;48.410;9.054;2024-02-26T12:31:36;94552.88;;;12.19;91.03
2397;BME280;1209;48.410;9.054;2024-02-26T12:34:02;94549.47;;;12.19;95.21
2397;BME280;1209;48.410;9.054;2024-02-26T12:36:29;94551.50;;;12.05;94.32
2397;BME280;1209;48.410;9.054;2024-02-26T12:38:54;94547.88;;;12.18;93.19
2397;BME280;1209;48.410;9.054;2024-02-26T12:41:20;94554.94;;;12.06;94.48
2397;BME280;1209;48.410;9.054;2024-02-26T12:43:46;94555.72;;;11.94;92.94
2397;BME280;1209;48.410;9.054;2024-02-26T12:46:11;94551.97;;;11.90;92.63
2397;BME280;1209;48.410;9.054;2024-02-26T12:48:38;94557.66;;;11.99;94.22
2397;BME280;1209;48.410;9.054;2024-02-26T12:51:03;94560.38;;;11.92;93.67
2397;BME280;1209;48.410;9.054;2024-02-26T12:53:29;94562.66;;;11.89;92.54
2397;BME280;1209;48.410;9.054;2024-02-26T12:55:55;94558.22;;;12.01;92.41
2397;BME280;1209;48.410;9.054;2024-02-26T12:58:21;94559.03;;;12.02;94.17
2397;BME280;1209;48.410;9.054;2024-02-26T13:00:51;94558.78;;;12.03;94.38
2397;BME280;1209;48.410;9.054;2024-02-26T13:03:16;94553.91;;;11.95;93.73
2397;BME280;1209;48.410;9.054;2024-02-26T13:05:42;94559.59;;;12.04;92.72
2397;BME280;1209;48.410;9.054;2024-02-26T13:08:07;94550.72;;;12.05;92.36
2397;BME280;1209;48.410;9.054;2024-02-26T13:10:33;94554.25;;;11.98;91.27
2397;BME280;1209;48.410;9.054;2024-02-26T13:13:01;94552.88;;;12.19;91.67
2397;BME280;1209;48.410;9.054;2024-02-26T13:15:27;94556.53;;;12.07;92.34
2397;BME280;1209;48.410;9.054;2024-02-26T13:17:53;94559.59;;;12.15;93.36
2397;BME280;1209;48.410;9.054;2024-02-26T13:20:28;94564.16;;;12.08;94.39
2397;BME280;1209;48.410;9.054;2024-02-26T13:23:03;94561.44;;;12.26;93.65
2397;BME280;1209;48.410;9.054;2024-02-26T13:25:30;94574.31;;;12.40;93.34